createdAt,value
2022-10-22T00:01:43.521Z,4.8
2022-10-22T00:07:26.709Z,5.1
2022-10-22T00:13:10.205Z,4.3
2022-10-22T00:18:55.057Z,3.6
2022-10-22T00:24:39.502Z,5.4
2022-10-22T00:30:22.789Z,4.2
2022-10-22T00:36:07.238Z,5.1
2022-10-22T00:41:52.091Z,4
2022-10-22T00:47:36.831Z,3.8
2022-10-22T00:53:23.547Z,4.4
2022-10-22T00:59:10.130Z,3.5
2022-10-22T01:04:53.616Z,3.9
2022-10-22T01:10:49.777Z,4
2022-10-22T01:16:37.198Z,3.2
2022-10-22T01:22:23.322Z,3.4
2022-10-22T01:28:12.535Z,3.3
2022-10-22T01:33:56.844Z,6.1
2022-10-22T01:39:41.538Z,2.8
2022-10-22T01:45:24.689Z,5.4
2022-10-22T01:51:21.526Z,4.2
2022-10-22T01:57:09.161Z,7.5
2022-10-22T02:02:56.533Z,4.6
2022-10-22T02:08:40.739Z,3.7
2022-10-22T02:14:24.127Z,4.3
2022-10-22T02:20:09.518Z,5.9
2022-10-22T02:25:56.773Z,5.2
2022-10-22T02:31:42.215Z,4.7
2022-10-22T02:37:27.144Z,6.7
2022-10-22T02:43:12.087Z,6.6
2022-10-22T02:48:56.138Z,6.5
2022-10-22T02:54:40.431Z,6.4
2022-10-22T03:00:24.037Z,4.9
2022-10-22T03:06:07.390Z,6.6
2022-10-22T03:11:52.732Z,7.2
2022-10-22T03:17:36.183Z,6.6
2022-10-22T03:23:21.359Z,6.2
2022-10-22T03:29:04.879Z,6.6
2022-10-22T03:34:48.166Z,4.7
2022-10-22T03:40:32.680Z,5.5
2022-10-22T03:46:15.955Z,7.3
2022-10-22T03:51:59.339Z,6.5
2022-10-22T03:57:43.645Z,4.4
2022-10-22T04:03:26.847Z,5.6
2022-10-22T04:09:10.573Z,5.2
2022-10-22T04:14:53.865Z,5.9
2022-10-22T04:20:37.075Z,4.1
2022-10-22T04:26:21.193Z,5.5
2022-10-22T04:32:04.243Z,5.4
2022-10-22T04:37:48.376Z,6.2
2022-10-22T04:43:31.844Z,5.1
2022-10-22T04:49:14.589Z,4.8
2022-10-22T04:54:57.737Z,4.6
2022-10-22T05:00:43.217Z,4.4
2022-10-22T05:06:27.016Z,4.7
2022-10-22T05:12:10.328Z,6.1
2022-10-22T05:17:53.739Z,3
2022-10-22T05:23:37.235Z,5.9
2022-10-22T05:29:21.723Z,5.5
2022-10-22T05:35:04.851Z,5.7
2022-10-22T05:40:48.201Z,7.8
2022-10-22T05:46:32.446Z,8.7
2022-10-22T05:52:15.664Z,7.6
2022-10-22T05:58:01.906Z,6.3
2022-10-22T06:03:45.918Z,5.4
2022-10-22T06:09:30.571Z,5.8
2022-10-22T06:15:14.619Z,9.5
2022-10-22T06:20:58.015Z,5.2
2022-10-22T06:26:41.174Z,4.5
2022-10-22T06:32:24.320Z,5
2022-10-22T06:38:07.630Z,5.6
2022-10-22T06:43:50.665Z,5.1
2022-10-22T06:49:33.886Z,4.7
2022-10-22T06:55:17.099Z,4.6
2022-10-22T07:01:07.956Z,4.9
2022-10-22T07:06:56.954Z,4
2022-10-22T07:12:41.370Z,4.9
2022-10-22T07:18:24.840Z,4.7
2022-10-22T07:24:11.588Z,3.7
2022-10-22T07:29:54.910Z,4.2
2022-10-22T07:35:46.648Z,4.2
2022-10-22T07:41:31.072Z,5.7
2022-10-22T07:47:14.159Z,4.4
2022-10-22T07:53:00.740Z,4.1
2022-10-22T07:58:44.023Z,5.8
2022-10-22T08:04:27.411Z,4.7
2022-10-22T08:10:13.512Z,5.3
2022-10-22T08:16:00.341Z,3.3
2022-10-22T08:21:46.423Z,4.2
2022-10-22T08:27:31.744Z,4.4
2022-10-22T08:33:16.278Z,5.3
2022-10-22T08:38:59.457Z,5.6
2022-10-22T08:45:05.585Z,5.2
2022-10-22T08:50:50.220Z,5.4
2022-10-22T08:56:36.457Z,5.5
2022-10-22T09:02:25.261Z,3.8
2022-10-22T09:08:11.904Z,2.9
2022-10-22T09:13:57.315Z,4
2022-10-22T09:19:44.220Z,4.5
2022-10-22T09:25:31.332Z,3.2
2022-10-22T09:31:17.206Z,4.5
2022-10-22T09:37:05.654Z,3.3
2022-10-22T09:42:49.165Z,2.7
2022-10-22T09:48:37.462Z,5.5
2022-10-22T09:54:21.866Z,4.7
2022-10-22T10:00:10.428Z,2.9
2022-10-22T10:05:54.771Z,2.8
2022-10-22T10:11:40.666Z,3.1
2022-10-22T10:17:30.009Z,3.7
2022-10-22T10:23:21.722Z,6.2
2022-10-22T10:29:18.585Z,4
2022-10-22T10:35:09.801Z,4.8
2022-10-22T10:40:58.114Z,4.6
2022-10-22T10:46:46.372Z,4.3
2022-10-22T10:52:34.842Z,4.6
2022-10-22T10:58:21.354Z,7.6
2022-10-22T11:04:16.550Z,5.3
2022-10-22T11:10:03.221Z,7.8
2022-10-22T11:15:48.922Z,5.2
2022-10-22T11:21:34.742Z,6.5
2022-10-22T11:27:22.762Z,4.6
2022-10-22T11:33:07.850Z,5.8
2022-10-22T11:38:51.383Z,5.7
2022-10-22T11:44:39.641Z,4
2022-10-22T11:50:24.531Z,5.1
2022-10-22T11:56:20.794Z,8.1
2022-10-22T12:02:04.033Z,9.3
2022-10-22T12:07:56.001Z,10.1
2022-10-22T12:13:44.283Z,18.5
2022-10-22T12:19:32.954Z,11.6
2022-10-22T12:25:18.770Z,11.3
2022-10-22T12:31:02.806Z,8
2022-10-22T12:36:46.769Z,8.1
2022-10-22T12:42:29.975Z,6.6
2022-10-22T12:48:18.359Z,10.4
2022-10-22T12:54:04.296Z,9.4
2022-10-22T12:59:53.131Z,8.6
2022-10-22T13:05:37.759Z,8.7
2022-10-22T13:11:22.978Z,9.7
2022-10-22T13:17:11.288Z,11.3
2022-10-22T13:23:01.470Z,6.6
2022-10-22T13:28:45.011Z,6.9
2022-10-22T13:34:28.829Z,5.7
2022-10-22T13:40:18.303Z,6.9
2022-10-22T13:46:02.648Z,6.5
2022-10-22T13:51:46.529Z,7.2
2022-10-22T13:57:30.763Z,7
2022-10-22T14:03:17.399Z,6.5
2022-10-22T14:09:03.351Z,5.1
2022-10-22T14:14:46.898Z,4
2022-10-22T14:20:32.023Z,4.5
2022-10-22T14:26:20.774Z,5
2022-10-22T14:32:04.319Z,4.9
2022-10-22T14:37:48.716Z,5
2022-10-22T14:43:33.321Z,4.7
2022-10-22T14:49:16.909Z,4.7
2022-10-22T14:55:00.294Z,4.2
2022-10-22T15:00:44.683Z,5.5
2022-10-22T15:06:27.982Z,3.8
2022-10-22T15:12:12.147Z,4.7
2022-10-22T15:17:55.543Z,4.7
2022-10-22T15:23:40.418Z,4.3
2022-10-22T15:29:27.871Z,3.2
2022-10-22T15:35:11.742Z,4.6
2022-10-22T15:41:07.268Z,3.3
2022-10-22T15:46:52.991Z,3.7
2022-10-22T15:52:37.241Z,3.3
2022-10-22T15:58:20.485Z,4.2
2022-10-22T16:04:04.093Z,3.3
2022-10-22T16:09:47.193Z,3.8
2022-10-22T16:15:30.642Z,4.6
2022-10-22T16:21:14.138Z,4.3
2022-10-22T16:26:57.242Z,3.7
2022-10-22T16:32:41.530Z,4
2022-10-22T16:38:25.239Z,5.5
2022-10-22T16:44:10.298Z,4.4
2022-10-22T16:49:53.427Z,5.1
2022-10-22T16:55:37.722Z,3.5
2022-10-22T17:01:21.881Z,3.9
2022-10-22T17:07:05.177Z,5.2
2022-10-22T17:12:48.560Z,4.6
2022-10-22T17:18:32.183Z,5.5
2022-10-22T17:24:15.488Z,3.8
2022-10-22T17:29:58.642Z,3.1
2022-10-22T17:35:42.760Z,6.3
2022-10-22T17:41:27.365Z,3.3
2022-10-22T17:47:10.599Z,4.2
2022-10-22T17:52:54.230Z,4.3
2022-10-22T17:58:37.630Z,4.7
2022-10-22T18:04:21.502Z,5.1
2022-10-22T18:10:04.815Z,4.8
2022-10-22T18:15:48.094Z,3.5
2022-10-22T18:21:31.687Z,3.7
2022-10-22T18:27:15.079Z,4.2
2022-10-22T18:32:58.186Z,2.9
2022-10-22T18:38:41.393Z,4.1
2022-10-22T18:44:25.916Z,4.1
2022-10-22T18:50:09.623Z,3.8
2022-10-22T18:55:52.777Z,4.6
2022-10-22T19:01:36.501Z,4.1
2022-10-22T19:07:19.876Z,4.6
2022-10-22T19:13:03.235Z,3.4
2022-10-22T19:18:46.362Z,3.8
2022-10-22T19:24:29.538Z,3.9
2022-10-22T19:30:13.844Z,5.3
2022-10-22T19:35:56.970Z,3.4
2022-10-22T19:41:40.052Z,4.3
2022-10-22T19:47:23.346Z,4.6
2022-10-22T19:53:06.533Z,5.1
2022-10-22T19:58:50.463Z,4.8
2022-10-22T20:04:34.999Z,4.1
2022-10-22T20:10:18.400Z,4.9
2022-10-22T20:16:02.968Z,4.9
2022-10-22T20:21:48.512Z,4.2
2022-10-22T20:27:33.316Z,4.7
2022-10-22T20:33:17.325Z,4.4
2022-10-22T20:39:01.744Z,4.1
2022-10-22T20:44:45.288Z,4.5
2022-10-22T20:50:29.691Z,7.4
2022-10-22T20:56:13.924Z,4.4
2022-10-22T21:01:57.460Z,5.5
2022-10-22T21:07:41.764Z,4.3
2022-10-22T21:13:25.535Z,3.5
2022-10-22T21:19:09.370Z,4.6
2022-10-22T21:24:54.928Z,3.2
2022-10-22T21:30:45.609Z,3.3
2022-10-22T21:36:29.544Z,6
2022-10-22T21:42:13.188Z,4.1
2022-10-22T21:47:56.679Z,5.4
2022-10-22T21:53:41.049Z,4.4
2022-10-22T21:59:28.895Z,6.1
2022-10-22T22:05:12.524Z,3.2
2022-10-22T22:10:56.317Z,4.3
2022-10-22T22:16:40.235Z,5.8
2022-10-22T22:22:25.183Z,4.7
2022-10-22T22:28:08.680Z,4.5
2022-10-22T22:33:52.255Z,4.3
2022-10-22T22:39:36.143Z,3.3
2022-10-22T22:45:20.919Z,4.1
2022-10-22T22:51:04.572Z,3.6
2022-10-22T22:56:48.214Z,4.4
2022-10-22T23:02:31.745Z,5
2022-10-22T23:08:15.094Z,3.8
2022-10-22T23:13:59.035Z,3.4
2022-10-22T23:19:42.485Z,4
2022-10-22T23:25:25.800Z,3.3
2022-10-22T23:31:13.101Z,3.1
2022-10-22T23:36:56.803Z,3.5
2022-10-22T23:42:41.118Z,5
2022-10-22T23:48:24.369Z,4.8
2022-10-22T23:54:09.115Z,4.9
2022-10-22T23:59:52.351Z,3.4
